createdAt,value
2016-02-29T00:00:15.074Z,0
2016-02-29T00:01:15.092Z,0
2016-02-29T00:02:15.095Z,0
2016-02-29T00:03:15.067Z,0
2016-02-29T00:04:15.069Z,0
2016-02-29T00:05:14.915Z,0
2016-02-29T00:06:15.106Z,0
2016-02-29T00:07:15.077Z,0
2016-02-29T00:08:15.111Z,0
2016-02-29T00:09:15.067Z,0
2016-02-29T00:10:15.086Z,0
2016-02-29T00:11:15.104Z,0
2016-02-29T00:12:15.059Z,0
2016-02-29T00:13:15.078Z,0
2016-02-29T00:14:15.065Z,0
2016-02-29T00:15:15.083Z,0
2016-02-29T00:16:15.070Z,0
2016-02-29T00:17:15.089Z,0
2016-02-29T00:18:15.061Z,0
2016-02-29T00:19:14.906Z,0
2016-02-29T00:20:15.066Z,0
2016-02-29T00:21:15.068Z,0
2016-02-29T00:22:15.071Z,0
2016-02-29T00:23:15.074Z,0
2016-02-29T00:24:15.076Z,0
2016-02-29T00:25:15.079Z,0
2016-02-29T00:26:15.112Z,0
2016-02-29T00:27:15.069Z,0
2016-02-29T00:28:15.102Z,0
2016-02-29T00:29:15.074Z,0
2016-02-29T00:30:15.066Z,0
2016-02-29T00:31:15.068Z,0
2016-02-29T00:32:15.071Z,0
2016-02-29T00:33:15.073Z,0
2016-02-29T00:34:15.061Z,0
2016-02-29T00:35:15.064Z,0
2016-02-29T00:36:15.066Z,0
2016-02-29T00:37:15.053Z,0
2016-02-29T00:38:15.072Z,0
2016-02-29T00:39:15.089Z,0
2016-02-29T00:40:15.077Z,0
2016-02-29T00:41:15.064Z,0
2016-02-29T00:42:15.052Z,0
2016-02-29T00:43:15.069Z,0
2016-02-29T00:44:15.057Z,0
2016-02-29T00:45:15.075Z,0
2016-02-29T00:46:15.062Z,0
2016-02-29T00:47:15.065Z,0
2016-02-29T00:48:15.083Z,0
2016-02-29T00:49:15.070Z,0
2016-02-29T00:50:15.073Z,0
2016-02-29T00:51:15.076Z,0
2016-02-29T00:52:15.062Z,0
2016-02-29T00:53:15.065Z,0
2016-02-29T00:54:15.068Z,0
2016-02-29T00:55:15.070Z,0
2016-02-29T00:56:15.073Z,0
2016-02-29T00:57:15.060Z,0
2016-02-29T00:58:15.048Z,0
2016-02-29T00:59:15.081Z,0
2016-02-29T01:00:15.053Z,0
2016-02-29T01:01:15.055Z,0
2016-02-29T01:02:15.042Z,0
2016-02-29T01:03:15.076Z,0
2016-02-29T01:04:15.064Z,0
2016-02-29T01:05:15.066Z,0
2016-02-29T01:06:15.053Z,0
2016-02-29T01:07:15.056Z,0
2016-02-29T01:08:15.058Z,0
2016-02-29T01:09:15.061Z,0
2016-02-29T01:10:15.063Z,0
2016-02-29T01:11:15.082Z,0
2016-02-29T01:12:15.053Z,0
2016-02-29T01:13:15.056Z,0
2016-02-29T01:14:15.059Z,0
2016-02-29T01:15:15.077Z,0
2016-02-29T01:16:15.064Z,0
2016-02-29T01:17:15.036Z,0
2016-02-29T01:18:15.039Z,0
2016-02-29T01:19:15.057Z,0
2016-02-29T01:20:15.074Z,0
2016-02-29T01:21:15.047Z,0
2016-02-29T01:22:15.049Z,0
2016-02-29T01:23:15.037Z,0
2016-02-29T01:24:15.055Z,0
2016-02-29T01:25:15.057Z,0
2016-02-29T01:26:15.060Z,0
2016-02-29T01:27:15.063Z,0
2016-02-29T01:28:15.066Z,0
2016-02-29T01:29:15.036Z,0
2016-02-29T01:30:15.055Z,0
2016-02-29T01:31:15.042Z,0
2016-02-29T01:32:15.061Z,0
2016-02-29T01:33:15.047Z,0
2016-02-29T01:34:15.035Z,0
2016-02-29T01:35:15.100Z,0
2016-02-29T01:36:15.040Z,0
2016-02-29T01:37:15.059Z,0
2016-02-29T01:38:15.045Z,0
2016-02-29T01:39:15.032Z,0
2016-02-29T01:40:15.050Z,0
2016-02-29T01:41:15.053Z,0
2016-02-29T01:42:15.119Z,0
2016-02-29T01:43:15.027Z,0
2016-02-29T01:44:15.061Z,0
2016-02-29T01:45:15.033Z,0
2016-02-29T01:46:15.052Z,0
2016-02-29T01:47:15.038Z,0
2016-02-29T01:48:15.057Z,0
2016-02-29T01:49:15.060Z,0
2016-02-29T01:50:15.046Z,0
2016-02-29T01:51:15.065Z,0
2016-02-29T01:52:15.036Z,0
2016-02-29T01:53:15.039Z,0
2016-02-29T01:54:15.058Z,0
2016-02-29T01:55:15.029Z,0
2016-02-29T01:56:14.907Z,0
2016-02-29T01:57:15.035Z,0
2016-02-29T01:58:15.052Z,0
2016-02-29T01:59:15.024Z,0
2016-02-29T02:00:15.071Z,0
2016-02-29T02:01:15.012Z,0
2016-02-29T02:02:15.016Z,0
2016-02-29T02:03:15.003Z,0
2016-02-29T02:04:14.975Z,0
2016-02-29T02:05:14.980Z,0
2016-02-29T02:06:14.961Z,0
2016-02-29T02:07:14.959Z,0
2016-02-29T02:08:14.941Z,0
2016-02-29T02:09:14.938Z,0
2016-02-29T02:10:14.936Z,0
2016-02-29T02:11:14.937Z,0
2016-02-29T02:12:14.922Z,0
2016-02-29T02:13:14.922Z,0
2016-02-29T02:14:14.939Z,0
2016-02-29T02:15:14.908Z,0
2016-02-29T02:16:14.754Z,0
2016-02-29T02:17:14.912Z,0
2016-02-29T02:18:14.930Z,0
2016-02-29T02:19:14.915Z,0
2016-02-29T02:20:14.950Z,0
2016-02-29T02:21:14.905Z,0
2016-02-29T02:22:14.909Z,0
2016-02-29T02:23:14.911Z,0
2016-02-29T02:24:14.914Z,0
2016-02-29T02:25:14.948Z,0
2016-02-29T02:26:14.903Z,0
2016-02-29T02:27:14.937Z,0
2016-02-29T02:28:14.908Z,0
2016-02-29T02:29:14.911Z,0
2016-02-29T02:30:14.913Z,0
2016-02-29T02:31:14.917Z,0
2016-02-29T02:32:14.904Z,0
2016-02-29T02:33:14.906Z,0
2016-02-29T02:34:14.925Z,0
2016-02-29T02:35:14.911Z,0
2016-02-29T02:36:14.899Z,0
2016-02-29T02:37:14.902Z,0
2016-02-29T02:38:14.904Z,0
2016-02-29T02:39:14.922Z,0
2016-02-29T02:40:14.910Z,0
2016-02-29T02:41:14.896Z,0
2016-02-29T02:42:14.915Z,0
2016-02-29T02:43:14.902Z,0
2016-02-29T02:44:14.905Z,0
2016-02-29T02:45:14.907Z,0
2016-02-29T02:46:14.910Z,0
2016-02-29T02:47:14.913Z,0
2016-02-29T02:48:14.900Z,0
2016-02-29T02:49:14.902Z,0
2016-02-29T02:50:14.906Z,0
2016-02-29T02:51:14.923Z,0
2016-02-29T02:52:14.895Z,0
2016-02-29T02:53:14.898Z,0
2016-02-29T02:54:14.884Z,0
2016-02-29T02:55:14.903Z,0
2016-02-29T02:56:14.922Z,0
2016-02-29T02:57:14.892Z,0
2016-02-29T02:58:14.896Z,0
2016-02-29T02:59:14.914Z,0
2016-02-29T03:00:14.901Z,0
2016-02-29T03:01:14.888Z,0
2016-02-29T03:02:14.906Z,0
2016-02-29T03:03:14.909Z,0
2016-02-29T03:04:14.897Z,0
2016-02-29T03:05:14.899Z,0
2016-02-29T03:06:14.917Z,0
2016-02-29T03:07:14.905Z,0
2016-02-29T03:08:14.907Z,0
2016-02-29T03:09:14.894Z,0
2016-02-29T03:10:14.897Z,0
2016-02-29T03:11:14.883Z,0
2016-02-29T03:12:14.902Z,0
2016-02-29T03:13:14.905Z,0
2016-02-29T03:14:14.876Z,0
2016-02-29T03:15:14.894Z,0
2016-02-29T03:16:14.897Z,0
2016-02-29T03:17:14.885Z,0
2016-02-29T03:18:14.887Z,0
2016-02-29T03:19:14.890Z,0
2016-02-29T03:20:14.892Z,0
2016-02-29T03:21:14.910Z,0
2016-02-29T03:22:14.881Z,0
2016-02-29T03:23:14.885Z,0
2016-02-29T03:24:14.887Z,0
2016-02-29T03:25:14.890Z,0
2016-02-29T03:26:14.877Z,0
2016-02-29T03:27:14.880Z,0
2016-02-29T03:28:14.898Z,0
2016-02-29T03:29:14.886Z,0
2016-02-29T03:30:14.920Z,0
2016-02-29T03:31:14.891Z,0
2016-02-29T03:32:14.753Z,0
2016-02-29T03:33:14.880Z,0
2016-02-29T03:34:14.884Z,0
2016-02-29T03:35:14.886Z,0
2016-02-29T03:36:14.905Z,0
2016-02-29T03:37:14.875Z,0
2016-02-29T03:38:14.878Z,0
2016-02-29T03:39:14.880Z,0
2016-02-29T03:40:14.899Z,0
2016-02-29T03:41:14.885Z,0
2016-02-29T03:42:14.951Z,0
2016-02-29T03:43:14.877Z,0
2016-02-29T03:44:14.894Z,0
2016-02-29T03:45:14.865Z,0
2016-02-29T03:46:14.868Z,0
2016-02-29T03:47:14.871Z,0
2016-02-29T03:48:14.874Z,0
2016-02-29T03:49:14.893Z,0
2016-02-29T03:50:14.895Z,0
2016-02-29T03:51:14.710Z,0
2016-02-29T03:52:14.868Z,0
2016-02-29T03:53:14.872Z,0
2016-02-29T03:54:14.874Z,0
2016-02-29T03:55:14.893Z,0
2016-02-29T03:56:14.864Z,0
2016-02-29T03:57:14.867Z,0
2016-02-29T03:58:14.885Z,0
2016-02-29T03:59:14.888Z,0
2016-02-29T04:00:14.859Z,0
2016-02-29T04:01:14.862Z,0
2016-02-29T04:02:14.896Z,0
2016-02-29T04:03:14.884Z,0
2016-02-29T04:04:14.886Z,0
2016-02-29T04:05:14.858Z,0
2016-02-29T04:06:14.876Z,0
2016-02-29T04:07:14.863Z,0
2016-02-29T04:08:14.865Z,0
2016-02-29T04:09:14.852Z,0
2016-02-29T04:10:14.871Z,0
2016-02-29T04:11:14.888Z,0
2016-02-29T04:12:14.876Z,0
2016-02-29T04:13:14.847Z,0
2016-02-29T04:14:14.866Z,0
2016-02-29T04:15:14.868Z,0
2016-02-29T04:16:14.871Z,0
2016-02-29T04:17:14.889Z,0
2016-02-29T04:18:14.877Z,0
2016-02-29T04:19:14.848Z,0
2016-02-29T04:20:14.866Z,0
2016-02-29T04:21:14.869Z,0
2016-02-29T04:22:14.871Z,0
2016-02-29T04:23:14.859Z,0
2016-02-29T04:24:14.876Z,0
2016-02-29T04:25:14.864Z,0
2016-02-29T04:26:14.851Z,0
2016-02-29T04:27:14.854Z,0
2016-02-29T04:28:14.858Z,0
2016-02-29T04:29:14.876Z,0
2016-02-29T04:30:14.863Z,0
2016-02-29T04:31:14.850Z,0
2016-02-29T04:32:14.852Z,0
2016-02-29T04:33:14.855Z,0
2016-02-29T04:34:14.857Z,0
2016-02-29T04:35:14.846Z,0
2016-02-29T04:36:14.848Z,0
2016-02-29T04:37:14.851Z,0
2016-02-29T04:38:14.853Z,0
2016-02-29T04:39:14.856Z,0
2016-02-29T04:40:14.843Z,0
2016-02-29T04:41:14.845Z,0
2016-02-29T04:42:14.864Z,0
2016-02-29T04:43:14.851Z,0
2016-02-29T04:44:14.853Z,0
2016-02-29T04:45:14.856Z,0
2016-02-29T04:46:14.859Z,0
2016-02-29T04:47:14.861Z,0
2016-02-29T04:48:14.849Z,0
2016-02-29T04:49:14.851Z,0
2016-02-29T04:50:14.839Z,0
2016-02-29T04:51:14.856Z,0
2016-02-29T04:52:14.844Z,0
2016-02-29T04:53:14.847Z,0
2016-02-29T04:54:14.849Z,0
2016-02-29T04:55:14.836Z,0
2016-02-29T04:56:14.839Z,0
2016-02-29T04:57:14.905Z,0
2016-02-29T04:58:14.844Z,0
2016-02-29T04:59:14.847Z,0
2016-02-29T05:00:14.849Z,0
2016-02-29T05:01:14.838Z,0
2016-02-29T05:02:14.840Z,0
2016-02-29T05:03:14.827Z,0
2016-02-29T05:04:14.829Z,0
2016-02-29T05:05:14.551Z,0
2016-02-29T05:06:14.838Z,0
2016-02-29T05:07:14.824Z,0
2016-02-29T05:08:14.827Z,0
2016-02-29T05:09:14.846Z,0
2016-02-29T05:10:14.832Z,0
2016-02-29T05:11:14.851Z,0
2016-02-29T05:12:14.884Z,0
2016-02-29T05:13:14.856Z,0
2016-02-29T05:14:14.844Z,0
2016-02-29T05:15:14.831Z,0
2016-02-29T05:16:14.834Z,0
2016-02-29T05:17:14.836Z,0
2016-02-29T05:18:14.839Z,0
2016-02-29T05:19:14.856Z,0
2016-02-29T05:20:14.844Z,0
2016-02-29T05:21:14.831Z,0
2016-02-29T05:22:14.833Z,0
2016-02-29T05:23:14.836Z,0
2016-02-29T05:24:14.839Z,0
2016-02-29T05:25:14.825Z,0
2016-02-29T05:26:14.828Z,0
2016-02-29T05:27:14.847Z,0
2016-02-29T05:28:14.834Z,0
2016-02-29T05:29:14.836Z,0
2016-02-29T05:30:14.839Z,0
2016-02-29T05:31:14.826Z,0
2016-02-29T05:32:14.829Z,0
2016-02-29T05:33:14.848Z,0
2016-02-29T05:34:14.819Z,0
2016-02-29T05:35:14.822Z,0
2016-02-29T05:36:14.824Z,0
2016-02-29T05:37:14.827Z,0
2016-02-29T05:38:14.830Z,0
2016-02-29T05:39:14.833Z,0
2016-02-29T05:40:14.835Z,0
2016-02-29T05:41:14.823Z,0
2016-02-29T05:42:14.825Z,0
2016-02-29T05:43:14.688Z,0
2016-02-29T05:44:14.830Z,0
2016-02-29T05:45:14.834Z,0
2016-02-29T05:46:14.821Z,0
2016-02-29T05:47:14.823Z,0
2016-02-29T05:48:14.826Z,0
2016-02-29T05:49:14.829Z,0
2016-02-29T05:50:14.831Z,0
2016-02-29T05:51:14.815Z,0
2016-02-29T05:52:14.818Z,0
2016-02-29T05:53:14.806Z,0
2016-02-29T05:54:14.823Z,0
2016-02-29T05:55:14.811Z,0
2016-02-29T05:56:14.813Z,0
2016-02-29T05:57:14.907Z,0
2016-02-29T05:58:15.205Z,0
2016-02-29T05:59:14.691Z,0
2016-02-29T06:00:14.934Z,0
2016-02-29T06:01:16.756Z,0
2016-02-29T06:02:14.835Z,0
2016-02-29T06:03:14.822Z,0
2016-02-29T06:04:14.825Z,0
2016-02-29T06:05:14.843Z,0
2016-02-29T06:06:14.815Z,0
2016-02-29T06:07:14.802Z,0
2016-02-29T06:08:14.664Z,0
2016-02-29T06:09:14.822Z,0
2016-02-29T06:10:14.810Z,0
2016-02-29T06:11:14.828Z,0
2016-02-29T06:12:14.706Z,0
2016-02-29T06:13:14.802Z,0
2016-02-29T06:14:14.821Z,0
2016-02-29T06:15:14.823Z,0
2016-02-29T06:16:14.811Z,0
2016-02-29T06:17:14.813Z,0
2016-02-29T06:18:14.808Z,0
2016-02-29T06:19:14.811Z,0
2016-02-29T06:20:14.813Z,0
2016-02-29T06:21:14.785Z,0
2016-02-29T06:22:14.803Z,0
2016-02-29T06:23:14.821Z,0
2016-02-29T06:24:14.809Z,0
2016-02-29T06:25:14.796Z,0
2016-02-29T06:26:14.829Z,5
2016-02-29T06:27:14.567Z,5
2016-02-29T06:28:14.819Z,5
2016-02-29T06:29:14.806Z,5
2016-02-29T06:30:14.793Z,5
2016-02-29T06:31:14.812Z,5
2016-02-29T06:32:14.798Z,5
2016-02-29T06:33:14.801Z,5
2016-02-29T06:34:14.803Z,5
2016-02-29T06:35:14.806Z,10
2016-02-29T06:36:14.794Z,10
2016-02-29T06:37:14.812Z,10
2016-02-29T06:38:14.815Z,10
2016-02-29T06:39:14.802Z,10
2016-02-29T06:40:14.820Z,10
2016-02-29T06:41:14.791Z,10
2016-02-29T06:42:14.825Z,10
2016-02-29T06:43:14.813Z,10
2016-02-29T06:44:14.800Z,15
2016-02-29T06:45:14.802Z,15
2016-02-29T06:46:14.789Z,15
2016-02-29T06:47:14.807Z,15
2016-02-29T06:48:14.811Z,15
2016-02-29T06:49:14.813Z,15
2016-02-29T06:50:14.785Z,15
2016-02-29T06:51:14.802Z,10
2016-02-29T06:52:14.821Z,10
2016-02-29T06:53:14.808Z,15
2016-02-29T06:54:14.795Z,15
2016-02-29T06:55:14.798Z,15
2016-02-29T06:56:14.785Z,15
2016-02-29T06:57:14.663Z,15
2016-02-29T06:58:14.790Z,15
2016-02-29T06:59:14.793Z,15
2016-02-29T07:00:14.780Z,15
2016-02-29T07:01:14.784Z,15
2016-02-29T07:02:14.786Z,15
2016-02-29T07:03:14.789Z,15
2016-02-29T07:04:14.791Z,15
2016-02-29T07:05:14.794Z,15
2016-02-29T07:06:14.781Z,15
2016-02-29T07:07:14.799Z,15
2016-02-29T07:08:14.817Z,15
2016-02-29T07:09:14.789Z,15
2016-02-29T07:10:14.791Z,15
2016-02-29T07:11:14.794Z,15
2016-02-29T07:12:14.797Z,15
2016-02-29T07:13:14.783Z,15
2016-02-29T07:14:14.849Z,15
2016-02-29T07:15:14.805Z,15
2016-02-29T07:16:14.792Z,15
2016-02-29T07:17:14.779Z,15
2016-02-29T07:18:14.782Z,15
2016-02-29T07:19:14.785Z,15
2016-02-29T07:20:14.803Z,15
2016-02-29T07:21:14.790Z,15
2016-02-29T07:22:14.808Z,15
2016-02-29T07:23:14.795Z,15
2016-02-29T07:24:14.626Z,15
2016-02-29T07:25:14.785Z,15
2016-02-29T07:26:14.803Z,10
2016-02-29T07:27:14.807Z,10
2016-02-29T07:28:14.777Z,15
2016-02-29T07:29:14.780Z,15
2016-02-29T07:30:14.782Z,15
2016-02-29T07:31:14.770Z,15
2016-02-29T07:32:14.773Z,15
2016-02-29T07:33:14.790Z,15
2016-02-29T07:34:14.793Z,15
2016-02-29T07:35:14.765Z,15
2016-02-29T07:36:14.627Z,15
2016-02-29T07:37:14.786Z,20
2016-02-29T07:38:14.789Z,15
2016-02-29T07:39:14.791Z,15
2016-02-29T07:40:14.779Z,15
2016-02-29T07:41:14.781Z,15
2016-02-29T07:42:14.784Z,15
2016-02-29T07:43:14.817Z,20
2016-02-29T07:44:14.774Z,20
2016-02-29T07:45:14.777Z,20
2016-02-29T07:46:14.780Z,20
2016-02-29T07:47:14.782Z,20
2016-02-29T07:48:14.785Z,20
2016-02-29T07:49:14.772Z,20
2016-02-29T07:50:14.774Z,25
2016-02-29T07:51:14.793Z,25
2016-02-29T07:52:14.795Z,25
2016-02-29T07:53:14.626Z,30
2016-02-29T07:54:14.801Z,25
2016-02-29T07:55:14.772Z,20
2016-02-29T07:56:14.618Z,20
2016-02-29T07:57:14.777Z,20
2016-02-29T07:58:14.780Z,20
2016-02-29T07:59:14.799Z,20
2016-02-29T08:00:14.770Z,20
2016-02-29T08:01:14.773Z,20
2016-02-29T08:02:14.790Z,15
2016-02-29T08:03:14.793Z,20
2016-02-29T08:04:14.827Z,15
2016-02-29T08:05:14.783Z,15
2016-02-29T08:06:14.818Z,15
2016-02-29T08:07:14.773Z,15
2016-02-29T08:08:14.775Z,15
2016-02-29T08:09:14.794Z,20
2016-02-29T08:10:14.797Z,20
2016-02-29T08:11:14.784Z,20
2016-02-29T08:12:14.771Z,20
2016-02-29T08:13:14.773Z,20
2016-02-29T08:14:14.776Z,20
2016-02-29T08:15:14.778Z,20
2016-02-29T08:16:14.781Z,20
2016-02-29T08:17:14.783Z,20
2016-02-29T08:18:14.771Z,20
2016-02-29T08:19:14.758Z,20
2016-02-29T08:20:14.777Z,20
2016-02-29T08:21:14.763Z,20
2016-02-29T08:22:14.610Z,25
2016-02-29T08:23:14.768Z,20
2016-02-29T08:24:14.788Z,20
2016-02-29T08:25:15.338Z,20
2016-02-29T08:26:14.793Z,20
2016-02-29T08:27:14.780Z,20
2016-02-29T08:28:14.768Z,25
2016-02-29T08:29:14.785Z,25
2016-02-29T08:30:14.772Z,25
2016-02-29T08:31:14.790Z,25
2016-02-29T08:32:14.794Z,25
2016-02-29T08:33:14.765Z,25
2016-02-29T08:34:14.768Z,25
2016-02-29T08:35:14.786Z,25
2016-02-29T08:36:14.789Z,25
2016-02-29T08:37:14.791Z,25
2016-02-29T08:38:14.794Z,25
2016-02-29T08:39:14.797Z,30
2016-02-29T08:40:14.768Z,30
2016-02-29T08:41:14.771Z,30
2016-02-29T08:42:14.773Z,25
2016-02-29T08:43:14.776Z,25
2016-02-29T08:44:14.794Z,30
2016-02-29T08:45:14.782Z,30
2016-02-29T08:46:14.769Z,30
2016-02-29T08:47:14.772Z,30
2016-02-29T08:48:14.774Z,25
2016-02-29T08:49:14.824Z,30
2016-02-29T08:50:14.810Z,30
2016-02-29T08:51:14.782Z,30
2016-02-29T08:52:14.768Z,30
2016-02-29T08:53:14.772Z,30
2016-02-29T08:54:14.791Z,30
2016-02-29T08:55:14.636Z,25
2016-02-29T08:56:14.780Z,25
2016-02-29T08:57:14.782Z,25
2016-02-29T08:58:14.785Z,25
2016-02-29T08:59:14.771Z,25
2016-02-29T09:00:14.790Z,20
2016-02-29T09:01:14.794Z,20
2016-02-29T09:02:14.796Z,20
2016-02-29T09:03:14.815Z,20
2016-02-29T09:04:14.785Z,20
2016-02-29T09:05:14.835Z,20
2016-02-29T09:06:14.775Z,20
2016-02-29T09:07:14.793Z,20
2016-02-29T09:08:14.764Z,25
2016-02-29T09:09:14.767Z,25
2016-02-29T09:10:14.754Z,25
2016-02-29T09:11:14.803Z,20
2016-02-29T09:12:14.759Z,20
2016-02-29T09:13:14.793Z,25
2016-02-29T09:14:14.765Z,20
2016-02-29T09:15:14.643Z,20
2016-02-29T09:16:14.771Z,20
2016-02-29T09:17:14.788Z,20
2016-02-29T09:18:14.806Z,20
2016-02-29T09:19:14.810Z,25
2016-02-29T09:20:14.766Z,25
2016-02-29T09:21:14.799Z,25
2016-02-29T09:22:14.787Z,30
2016-02-29T09:23:14.773Z,25
2016-02-29T09:24:14.807Z,25
2016-02-29T09:25:15.372Z,25
2016-02-29T09:26:14.797Z,25
2016-02-29T09:27:14.769Z,25
2016-02-29T09:28:14.771Z,25
2016-02-29T09:29:14.774Z,30
2016-02-29T09:30:14.776Z,30
2016-02-29T09:31:14.794Z,35
2016-02-29T09:32:14.969Z,35
2016-02-29T09:33:14.785Z,30
2016-02-29T09:34:14.772Z,30
2016-02-29T09:35:14.775Z,35
2016-02-29T09:36:14.777Z,35
2016-02-29T09:37:14.795Z,35
2016-02-29T09:38:14.783Z,35
2016-02-29T09:39:14.786Z,40
2016-02-29T09:40:14.788Z,40
2016-02-29T09:41:14.775Z,45
2016-02-29T09:42:14.777Z,45
2016-02-29T09:43:14.796Z,45
2016-02-29T09:44:14.782Z,45
2016-02-29T09:45:14.785Z,45
2016-02-29T09:46:14.772Z,50
2016-02-29T09:47:14.791Z,50
2016-02-29T10:16:25.855Z,60
2016-02-29T10:17:25.842Z,60
2016-02-29T10:18:25.690Z,55
2016-02-29T10:19:25.863Z,55
2016-02-29T10:20:25.835Z,55
2016-02-29T10:21:25.868Z,55
2016-02-29T10:22:26.200Z,50
2016-02-29T10:23:25.842Z,45
2016-02-29T10:24:25.830Z,45
2016-02-29T10:25:25.864Z,45
2016-02-29T10:26:25.851Z,40
2016-02-29T10:27:25.822Z,40
2016-02-29T10:28:25.841Z,35
2016-02-29T10:29:25.844Z,30
2016-02-29T10:30:25.847Z,30
2016-02-29T10:31:25.864Z,30
2016-02-29T10:32:25.836Z,30
2016-02-29T10:33:25.854Z,30
2016-02-29T10:34:25.857Z,30
2016-02-29T10:35:25.844Z,30
2016-02-29T10:36:25.847Z,30
2016-02-29T10:37:25.833Z,35
2016-02-29T10:38:25.852Z,30
2016-02-29T10:39:25.855Z,30
2016-02-29T10:40:25.857Z,30
2016-02-29T10:41:25.860Z,30
2016-02-29T10:42:25.847Z,30
2016-02-29T10:43:25.849Z,25
2016-02-29T10:44:25.868Z,30
2016-02-29T10:45:25.855Z,30
2016-02-29T10:46:25.874Z,30
2016-02-29T10:47:25.860Z,30
2016-02-29T10:48:25.848Z,30
2016-02-29T10:49:25.851Z,25
2016-02-29T10:50:25.837Z,25
2016-02-29T10:51:25.903Z,25
2016-02-29T10:52:25.874Z,25
2016-02-29T10:53:25.876Z,25
2016-02-29T10:54:25.864Z,25
2016-02-29T10:55:25.898Z,25
2016-02-29T10:56:25.837Z,25
2016-02-29T10:57:25.872Z,25
2016-02-29T10:58:25.843Z,25
2016-02-29T10:59:25.877Z,30
2016-02-29T11:00:25.848Z,30
2016-02-29T11:01:25.867Z,30
2016-02-29T11:02:25.870Z,25
2016-02-29T11:03:25.856Z,30
2016-02-29T11:04:25.891Z,30
2016-02-29T11:05:25.852Z,35
2016-02-29T11:06:25.866Z,40
2016-02-29T11:07:25.858Z,40
2016-02-29T11:08:25.835Z,40
2016-02-29T11:09:25.827Z,40
2016-02-29T11:10:25.818Z,35
2016-02-29T11:11:25.654Z,35
2016-02-29T11:12:25.810Z,40
2016-02-29T11:13:25.793Z,40
2016-02-29T11:14:25.822Z,45
2016-02-29T11:15:25.791Z,45
2016-02-29T11:16:25.790Z,45
2016-02-29T11:17:25.807Z,45
2016-02-29T11:18:25.776Z,45
2016-02-29T11:19:25.794Z,50
2016-02-29T11:20:25.779Z,50
2016-02-29T11:21:25.781Z,50
2016-02-29T11:22:25.799Z,45
2016-02-29T11:23:25.785Z,45
2016-02-29T11:24:25.803Z,45
2016-02-29T11:25:25.790Z,50
2016-02-29T11:26:25.808Z,50
2016-02-29T11:27:25.779Z,50
2016-02-29T11:28:25.781Z,50
2016-02-29T11:29:25.815Z,50
2016-02-29T11:30:25.786Z,50
2016-02-29T11:31:25.804Z,55
2016-02-29T11:32:25.775Z,55
2016-02-29T11:33:25.794Z,55
2016-02-29T11:34:25.812Z,60
2016-02-29T11:35:25.830Z,60
2016-02-29T11:36:25.833Z,65
2016-02-29T11:37:25.789Z,65
2016-02-29T11:38:25.822Z,60
2016-02-29T11:39:25.810Z,55
2016-02-29T11:40:25.797Z,55
2016-02-29T11:41:25.830Z,55
2016-02-29T11:42:25.818Z,50
2016-02-29T11:43:25.821Z,50
2016-02-29T11:44:25.792Z,50
2016-02-29T11:45:25.826Z,50
2016-02-29T11:46:25.812Z,45
2016-02-29T11:47:25.847Z,50
2016-02-29T11:48:25.818Z,50
2016-02-29T11:49:25.852Z,50
2016-02-29T11:50:25.809Z,50
2016-02-29T11:51:25.795Z,45
2016-02-29T11:52:25.829Z,40
2016-02-29T11:53:25.817Z,40
2016-02-29T11:54:28.007Z,40
2016-02-29T11:55:25.806Z,40
2016-02-29T11:56:25.825Z,45
2016-02-29T11:57:25.811Z,45
2016-02-29T11:58:25.845Z,45
2016-02-29T11:59:25.817Z,45
2016-02-29T12:00:25.789Z,50
2016-02-29T12:01:25.838Z,50
2016-02-29T12:02:25.809Z,50
2016-02-29T12:03:25.843Z,55
2016-02-29T12:04:25.814Z,55
2016-02-29T12:05:25.817Z,60
2016-02-29T12:06:25.820Z,60
2016-02-29T12:07:25.839Z,60
2016-02-29T12:08:25.810Z,55
2016-02-29T12:09:25.844Z,50
2016-02-29T12:10:25.815Z,50
2016-02-29T12:11:25.818Z,50
2016-02-29T12:12:25.821Z,50
2016-02-29T12:13:25.855Z,50
2016-02-29T12:14:25.810Z,50
2016-02-29T12:15:25.860Z,50
2016-02-29T12:16:25.847Z,50
2016-02-29T12:17:25.819Z,50
2016-02-29T12:18:25.821Z,55
2016-02-29T12:19:25.824Z,55
2016-02-29T12:20:25.827Z,55
2016-02-29T12:21:26.142Z,55
2016-02-29T12:22:25.829Z,60
2016-02-29T12:23:25.832Z,65
2016-02-29T12:24:25.819Z,65
2016-02-29T12:25:25.821Z,65
2016-02-29T12:26:25.824Z,70
2016-02-29T12:27:25.826Z,70
2016-02-29T12:28:25.845Z,75
2016-02-29T12:29:25.848Z,75
2016-02-29T12:30:25.913Z,75
2016-02-29T12:31:25.837Z,75
2016-02-29T12:32:25.825Z,75
2016-02-29T12:33:25.842Z,70
2016-02-29T12:34:25.846Z,65
2016-02-29T12:35:25.848Z,70
2016-02-29T12:36:25.836Z,65
2016-02-29T12:37:25.839Z,65
2016-02-29T12:38:25.841Z,60
2016-02-29T12:39:25.844Z,55
2016-02-29T12:40:25.846Z,55
2016-02-29T12:41:25.850Z,55
2016-02-29T12:42:25.852Z,55
2016-02-29T12:43:25.917Z,55
2016-02-29T12:44:25.841Z,55
2016-02-29T12:45:25.844Z,55
2016-02-29T12:46:25.862Z,55
2016-02-29T12:47:25.850Z,55
2016-02-29T12:48:25.852Z,55
2016-02-29T12:49:25.855Z,60
2016-02-29T12:50:25.888Z,60
2016-02-29T12:51:25.720Z,60
2016-02-29T12:52:25.863Z,55
2016-02-29T12:53:25.882Z,50
2016-02-29T12:54:25.853Z,50
2016-02-29T12:55:25.684Z,50
2016-02-29T12:56:25.843Z,45
2016-02-29T12:57:25.876Z,45
2016-02-29T12:58:25.879Z,45
2016-02-29T12:59:25.866Z,45
2016-02-29T13:00:25.853Z,50
2016-02-29T13:01:25.872Z,50
2016-02-29T13:02:25.890Z,45
2016-02-29T13:03:25.861Z,45
2016-02-29T13:04:25.864Z,45
2016-02-29T13:05:25.857Z,45
2016-02-29T13:06:25.876Z,45
2016-02-29T13:07:25.878Z,45
2016-02-29T13:08:25.896Z,45
2016-02-29T13:09:25.867Z,45
2016-02-29T13:10:25.870Z,45
2016-02-29T13:11:25.858Z,40
2016-02-29T13:12:25.861Z,40
2016-02-29T13:13:25.895Z,40
2016-02-29T13:14:25.881Z,45
2016-02-29T13:15:25.869Z,50
2016-02-29T13:16:25.917Z,50
2016-02-29T13:17:25.874Z,50
2016-02-29T13:18:25.877Z,50
2016-02-29T13:19:25.880Z,55
2016-02-29T13:20:25.866Z,55
2016-02-29T13:21:25.885Z,55
2016-02-29T13:22:25.887Z,55
2016-02-29T13:23:25.890Z,55
2016-02-29T13:24:25.877Z,55
2016-02-29T13:25:25.880Z,60
2016-02-29T13:26:25.883Z,60
2016-02-29T13:27:25.901Z,60
2016-02-29T13:28:25.904Z,60
2016-02-29T13:29:25.874Z,60
2016-02-29T13:30:25.909Z,60
2016-02-29T13:31:25.896Z,60
2016-02-29T13:32:25.868Z,55
2016-02-29T13:33:25.948Z,55
2016-02-29T13:34:26.498Z,50
2016-02-29T13:35:25.907Z,50
2016-02-29T13:36:25.893Z,50
2016-02-29T13:37:25.881Z,50
2016-02-29T13:38:25.946Z,55
2016-02-29T13:39:25.949Z,55
2016-02-29T13:40:25.904Z,55
2016-02-29T13:41:25.923Z,55
2016-02-29T13:42:25.878Z,50
2016-02-29T13:43:25.976Z,50
2016-02-29T13:44:25.915Z,50
2016-02-29T13:45:25.903Z,50
2016-02-29T13:46:25.905Z,50
2016-02-29T13:47:25.908Z,50
2016-02-29T13:48:25.925Z,50
2016-02-29T13:49:25.897Z,50
2016-02-29T13:50:25.915Z,50
2016-02-29T13:51:25.903Z,50
2016-02-29T13:52:25.921Z,45
2016-02-29T13:53:25.908Z,45
2016-02-29T13:54:25.910Z,45
2016-02-29T13:55:25.913Z,45
2016-02-29T13:56:25.917Z,45
2016-02-29T13:57:25.919Z,45
2016-02-29T13:58:25.906Z,45
2016-02-29T13:59:25.924Z,45
2016-02-29T14:00:25.911Z,50
2016-02-29T14:01:25.929Z,45
2016-02-29T14:02:25.917Z,45
2016-02-29T14:03:26.373Z,45
2016-02-29T14:04:25.954Z,50
2016-02-29T14:05:25.924Z,50
2016-02-29T14:06:25.912Z,50
2016-02-29T14:07:25.914Z,55
2016-02-29T14:08:25.917Z,55
2016-02-29T14:09:25.951Z,55
2016-02-29T14:10:25.923Z,55
2016-02-29T14:11:25.925Z,55
2016-02-29T14:12:25.943Z,55
2016-02-29T14:13:25.930Z,55
2016-02-29T14:14:25.948Z,55
2016-02-29T14:15:25.920Z,55
2016-02-29T14:16:25.908Z,55
2016-02-29T14:17:25.942Z,55
2016-02-29T14:18:25.928Z,50
2016-02-29T14:19:25.931Z,45
2016-02-29T14:20:25.934Z,45
2016-02-29T14:21:25.937Z,40
2016-02-29T14:22:25.924Z,40
2016-02-29T14:23:25.942Z,40
2016-02-29T14:24:25.944Z,40
2016-02-29T14:25:25.947Z,35
2016-02-29T14:26:25.918Z,40
2016-02-29T14:27:26.016Z,40
2016-02-29T14:28:25.955Z,40
2016-02-29T14:29:25.943Z,40
2016-02-29T14:30:25.929Z,35
2016-02-29T14:31:25.948Z,35
2016-02-29T14:32:25.951Z,35
2016-02-29T14:33:25.938Z,35
2016-02-29T14:34:25.940Z,40
2016-02-29T14:35:25.943Z,40
2016-02-29T14:36:25.945Z,40
2016-02-29T14:37:25.949Z,40
2016-02-29T14:38:25.935Z,40
2016-02-29T14:39:26.001Z,40
2016-02-29T14:40:25.957Z,40
2016-02-29T14:41:26.068Z,40
2016-02-29T14:42:25.931Z,35
2016-02-29T14:43:25.949Z,40
2016-02-29T14:44:25.795Z,35
2016-02-29T14:45:25.954Z,35
2016-02-29T14:46:25.942Z,35
2016-02-29T14:47:25.928Z,35
2016-02-29T14:48:25.962Z,35
2016-02-29T14:49:25.950Z,35
2016-02-29T14:50:25.952Z,35
2016-02-29T14:51:25.970Z,40
2016-02-29T14:52:25.973Z,35
2016-02-29T14:53:25.975Z,35
2016-02-29T14:54:25.963Z,30
2016-02-29T14:55:25.949Z,30
2016-02-29T14:56:25.968Z,30
2016-02-29T14:57:25.971Z,30